sensor_id;sensor_type;location;lat;lon;timestamp;P1;durP1;ratioP1;P2;durP2;ratioP2
60211;SDS011;46079;48.686;15.598;2023-04-24T00:00:19;5.07;;;1.70;;
60211;SDS011;46079;48.686;15.598;2023-04-24T00:02:45;4.75;;;1.50;;
60211;SDS011;46079;48.686;15.598;2023-04-24T00:05:12;4.38;;;1.60;;
60211;SDS011;46079;48.686;15.598;2023-04-24T00:07:42;5.53;;;1.80;;
60211;SDS011;46079;48.686;15.598;2023-04-24T00:10:09;4.35;;;1.60;;
60211;SDS011;46079;48.686;15.598;2023-04-24T00:12:35;4.35;;;1.60;;
60211;SDS011;46079;48.686;15.598;2023-04-24T00:15:01;4.78;;;1.65;;
60211;SDS011;46079;48.686;15.598;2023-04-24T00:17:28;5.57;;;1.90;;
60211;SDS011;46079;48.686;15.598;2023-04-24T00:19:53;4.60;;;1.67;;
60211;SDS011;46079;48.686;15.598;2023-04-24T00:22:27;4.28;;;1.58;;
60211;SDS011;46079;48.686;15.598;2023-04-24T00:24:53;4.40;;;1.60;;
60211;SDS011;46079;48.686;15.598;2023-04-24T00:27:18;4.57;;;1.60;;
60211;SDS011;46079;48.686;15.598;2023-04-24T00:29:44;4.60;;;1.60;;
60211;SDS011;46079;48.686;15.598;2023-04-24T00:32:10;5.07;;;1.60;;
60211;SDS011;46079;48.686;15.598;2023-04-24T00:34:35;5.15;;;1.70;;
60211;SDS011;46079;48.686;15.598;2023-04-24T00:37:01;5.03;;;1.70;;
60211;SDS011;46079;48.686;15.598;2023-04-24T00:39:26;5.38;;;1.67;;
60211;SDS011;46079;48.686;15.598;2023-04-24T00:41:52;5.10;;;1.70;;
60211;SDS011;46079;48.686;15.598;2023-04-24T00:44:18;4.43;;;1.58;;
60211;SDS011;46079;48.686;15.598;2023-04-24T00:46:43;5.63;;;1.75;;
60211;SDS011;46079;48.686;15.598;2023-04-24T00:49:09;5.03;;;1.77;;
60211;SDS011;46079;48.686;15.598;2023-04-24T00:51:35;4.82;;;1.75;;
60211;SDS011;46079;48.686;15.598;2023-04-24T00:54:01;4.25;;;1.55;;
60211;SDS011;46079;48.686;15.598;2023-04-24T00:56:27;4.78;;;1.70;;
60211;SDS011;46079;48.686;15.598;2023-04-24T00:58:53;4.88;;;1.77;;
60211;SDS011;46079;48.686;15.598;2023-04-24T01:01:19;5.22;;;1.60;;
60211;SDS011;46079;48.686;15.598;2023-04-24T01:03:46;4.80;;;1.60;;
60211;SDS011;46079;48.686;15.598;2023-04-24T01:06:12;4.75;;;1.70;;
60211;SDS011;46079;48.686;15.598;2023-04-24T01:08:38;5.28;;;1.67;;
60211;SDS011;46079;48.686;15.598;2023-04-24T01:11:04;4.80;;;1.65;;
60211;SDS011;46079;48.686;15.598;2023-04-24T01:13:31;5.20;;;1.80;;
60211;SDS011;46079;48.686;15.598;2023-04-24T01:15:57;4.88;;;1.60;;
60211;SDS011;46079;48.686;15.598;2023-04-24T01:18:23;5.18;;;1.60;;
60211;SDS011;46079;48.686;15.598;2023-04-24T01:20:48;4.93;;;1.77;;
60211;SDS011;46079;48.686;15.598;2023-04-24T01:23:18;4.90;;;1.73;;
60211;SDS011;46079;48.686;15.598;2023-04-24T01:25:43;4.78;;;1.77;;
60211;SDS011;46079;48.686;15.598;2023-04-24T01:28:09;4.72;;;1.75;;
60211;SDS011;46079;48.686;15.598;2023-04-24T01:30:35;5.45;;;1.77;;
60211;SDS011;46079;48.686;15.598;2023-04-24T01:33:01;4.32;;;1.60;;
60211;SDS011;46079;48.686;15.598;2023-04-24T01:35:27;5.85;;;1.95;;
60211;SDS011;46079;48.686;15.598;2023-04-24T01:37:53;5.28;;;1.70;;
60211;SDS011;46079;48.686;15.598;2023-04-24T01:40:18;4.32;;;1.67;;
60211;SDS011;46079;48.686;15.598;2023-04-24T01:42:43;4.68;;;1.70;;
60211;SDS011;46079;48.686;15.598;2023-04-24T01:45:10;5.28;;;1.80;;
60211;SDS011;46079;48.686;15.598;2023-04-24T01:47:37;4.88;;;1.70;;
60211;SDS011;46079;48.686;15.598;2023-04-24T01:50:04;4.35;;;1.63;;
60211;SDS011;46079;48.686;15.598;2023-04-24T01:52:30;5.05;;;1.60;;
60211;SDS011;46079;48.686;15.598;2023-04-24T01:55:01;5.03;;;1.60;;
60211;SDS011;46079;48.686;15.598;2023-04-24T01:57:28;4.35;;;1.60;;
60211;SDS011;46079;48.686;15.598;2023-04-24T01:59:55;4.07;;;1.42;;
60211;SDS011;46079;48.686;15.598;2023-04-24T02:02:20;5.35;;;1.70;;
60211;SDS011;46079;48.686;15.598;2023-04-24T02:04:46;4.43;;;1.75;;
60211;SDS011;46079;48.686;15.598;2023-04-24T02:07:11;5.07;;;1.80;;
60211;SDS011;46079;48.686;15.598;2023-04-24T02:09:37;4.82;;;1.65;;
60211;SDS011;46079;48.686;15.598;2023-04-24T02:12:02;5.68;;;1.80;;
60211;SDS011;46079;48.686;15.598;2023-04-24T02:14:28;4.90;;;1.77;;
60211;SDS011;46079;48.686;15.598;2023-04-24T02:16:53;5.47;;;1.85;;
60211;SDS011;46079;48.686;15.598;2023-04-24T02:19:19;4.68;;;1.73;;
60211;SDS011;46079;48.686;15.598;2023-04-24T02:21:44;5.63;;;1.80;;
60211;SDS011;46079;48.686;15.598;2023-04-24T02:24:10;4.65;;;1.60;;
60211;SDS011;46079;48.686;15.598;2023-04-24T02:26:35;5.03;;;1.70;;
60211;SDS011;46079;48.686;15.598;2023-04-24T02:29:01;5.20;;;1.80;;
60211;SDS011;46079;48.686;15.598;2023-04-24T02:31:26;4.35;;;1.70;;
60211;SDS011;46079;48.686;15.598;2023-04-24T02:33:52;5.85;;;1.83;;
60211;SDS011;46079;48.686;15.598;2023-04-24T02:36:17;5.18;;;1.63;;
60211;SDS011;46079;48.686;15.598;2023-04-24T02:38:42;4.85;;;1.60;;
60211;SDS011;46079;48.686;15.598;2023-04-24T02:41:08;5.22;;;1.70;;
60211;SDS011;46079;48.686;15.598;2023-04-24T02:43:33;4.60;;;1.52;;
60211;SDS011;46079;48.686;15.598;2023-04-24T02:45:58;4.93;;;1.60;;
60211;SDS011;46079;48.686;15.598;2023-04-24T02:48:24;5.07;;;1.80;;
60211;SDS011;46079;48.686;15.598;2023-04-24T02:50:49;5.03;;;1.70;;
60211;SDS011;46079;48.686;15.598;2023-04-24T02:53:15;4.57;;;1.80;;
60211;SDS011;46079;48.686;15.598;2023-04-24T02:55:41;5.63;;;1.92;;
60211;SDS011;46079;48.686;15.598;2023-04-24T02:58:06;5.05;;;1.60;;
60211;SDS011;46079;48.686;15.598;2023-04-24T03:00:32;4.70;;;1.60;;
60211;SDS011;46079;48.686;15.598;2023-04-24T03:03:01;4.85;;;1.60;;
60211;SDS011;46079;48.686;15.598;2023-04-24T03:05:26;4.13;;;1.50;;
60211;SDS011;46079;48.686;15.598;2023-04-24T03:07:52;5.85;;;1.73;;
60211;SDS011;46079;48.686;15.598;2023-04-24T03:10:20;4.63;;;1.65;;
60211;SDS011;46079;48.686;15.598;2023-04-24T03:12:47;5.43;;;1.80;;
60211;SDS011;46079;48.686;15.598;2023-04-24T03:15:13;5.40;;;1.80;;
60211;SDS011;46079;48.686;15.598;2023-04-24T03:17:38;4.47;;;1.67;;
60211;SDS011;46079;48.686;15.598;2023-04-24T03:20:04;4.38;;;1.52;;
60211;SDS011;46079;48.686;15.598;2023-04-24T03:22:30;4.30;;;1.60;;
60211;SDS011;46079;48.686;15.598;2023-04-24T03:24:57;4.45;;;1.67;;
60211;SDS011;46079;48.686;15.598;2023-04-24T03:27:23;5.13;;;1.70;;
60211;SDS011;46079;48.686;15.598;2023-04-24T03:29:48;4.43;;;1.42;;
60211;SDS011;46079;48.686;15.598;2023-04-24T03:32:18;5.00;;;1.80;;
60211;SDS011;46079;48.686;15.598;2023-04-24T03:34:44;5.90;;;1.70;;
60211;SDS011;46079;48.686;15.598;2023-04-24T03:37:10;5.05;;;1.80;;
60211;SDS011;46079;48.686;15.598;2023-04-24T03:39:35;4.97;;;1.70;;
60211;SDS011;46079;48.686;15.598;2023-04-24T03:42:00;4.38;;;1.60;;
60211;SDS011;46079;48.686;15.598;2023-04-24T03:44:26;4.25;;;1.50;;
60211;SDS011;46079;48.686;15.598;2023-04-24T03:46:51;5.70;;;1.88;;
60211;SDS011;46079;48.686;15.598;2023-04-24T03:49:17;5.13;;;1.70;;
60211;SDS011;46079;48.686;15.598;2023-04-24T03:51:42;5.05;;;1.70;;
60211;SDS011;46079;48.686;15.598;2023-04-24T03:54:07;4.55;;;1.63;;
60211;SDS011;46079;48.686;15.598;2023-04-24T03:56:33;5.50;;;2.10;;
60211;SDS011;46079;48.686;15.598;2023-04-24T03:58:58;6.00;;;1.80;;
60211;SDS011;46079;48.686;15.598;2023-04-24T04:01:24;4.97;;;1.60;;
60211;SDS011;46079;48.686;15.598;2023-04-24T04:03:49;4.93;;;1.67;;
60211;SDS011;46079;48.686;15.598;2023-04-24T04:06:14;4.88;;;1.60;;
60211;SDS011;46079;48.686;15.598;2023-04-24T04:08:40;4.53;;;1.67;;
60211;SDS011;46079;48.686;15.598;2023-04-24T04:11:05;4.50;;;1.52;;
60211;SDS011;46079;48.686;15.598;2023-04-24T04:13:31;4.80;;;1.70;;
60211;SDS011;46079;48.686;15.598;2023-04-24T04:15:56;5.80;;;1.60;;
60211;SDS011;46079;48.686;15.598;2023-04-24T04:18:22;4.68;;;1.70;;
60211;SDS011;46079;48.686;15.598;2023-04-24T04:20:47;4.15;;;1.58;;
60211;SDS011;46079;48.686;15.598;2023-04-24T04:23:12;5.00;;;1.83;;
60211;SDS011;46079;48.686;15.598;2023-04-24T04:25:38;4.72;;;1.60;;
60211;SDS011;46079;48.686;15.598;2023-04-24T04:28:03;5.20;;;1.50;;
60211;SDS011;46079;48.686;15.598;2023-04-24T04:30:29;5.18;;;1.73;;
60211;SDS011;46079;48.686;15.598;2023-04-24T04:32:57;4.22;;;1.55;;
60211;SDS011;46079;48.686;15.598;2023-04-24T04:35:23;4.95;;;1.67;;
60211;SDS011;46079;48.686;15.598;2023-04-24T04:37:49;4.85;;;1.58;;
60211;SDS011;46079;48.686;15.598;2023-04-24T04:40:16;4.40;;;1.67;;
60211;SDS011;46079;48.686;15.598;2023-04-24T04:42:42;5.05;;;1.80;;
60211;SDS011;46079;48.686;15.598;2023-04-24T04:45:11;5.45;;;1.88;;
60211;SDS011;46079;48.686;15.598;2023-04-24T04:47:36;5.10;;;1.70;;
60211;SDS011;46079;48.686;15.598;2023-04-24T04:50:02;4.75;;;1.63;;
60211;SDS011;46079;48.686;15.598;2023-04-24T04:52:30;4.75;;;1.60;;
60211;SDS011;46079;48.686;15.598;2023-04-24T04:54:56;4.30;;;1.52;;
60211;SDS011;46079;48.686;15.598;2023-04-24T04:57:21;4.95;;;1.70;;
60211;SDS011;46079;48.686;15.598;2023-04-24T04:59:47;4.90;;;1.70;;
60211;SDS011;46079;48.686;15.598;2023-04-24T05:02:12;5.15;;;1.70;;
60211;SDS011;46079;48.686;15.598;2023-04-24T05:04:38;4.72;;;1.55;;
60211;SDS011;46079;48.686;15.598;2023-04-24T05:07:03;4.70;;;1.67;;
60211;SDS011;46079;48.686;15.598;2023-04-24T05:09:29;4.40;;;1.70;;
60211;SDS011;46079;48.686;15.598;2023-04-24T05:11:54;5.20;;;1.67;;
60211;SDS011;46079;48.686;15.598;2023-04-24T05:14:21;4.30;;;1.60;;
60211;SDS011;46079;48.686;15.598;2023-04-24T05:16:47;4.75;;;1.80;;
60211;SDS011;46079;48.686;15.598;2023-04-24T05:19:12;4.38;;;1.60;;
60211;SDS011;46079;48.686;15.598;2023-04-24T05:21:39;4.03;;;1.48;;
60211;SDS011;46079;48.686;15.598;2023-04-24T05:24:05;4.22;;;1.48;;
60211;SDS011;46079;48.686;15.598;2023-04-24T05:26:31;4.22;;;1.60;;
60211;SDS011;46079;48.686;15.598;2023-04-24T05:28:57;4.25;;;1.50;;
60211;SDS011;46079;48.686;15.598;2023-04-24T05:31:22;4.25;;;1.50;;
60211;SDS011;46079;48.686;15.598;2023-04-24T05:33:47;4.53;;;1.63;;
60211;SDS011;46079;48.686;15.598;2023-04-24T05:36:13;4.47;;;1.58;;
60211;SDS011;46079;48.686;15.598;2023-04-24T05:38:38;4.45;;;1.50;;
60211;SDS011;46079;48.686;15.598;2023-04-24T05:41:13;5.75;;;1.83;;
60211;SDS011;46079;48.686;15.598;2023-04-24T05:43:38;4.20;;;1.55;;
60211;SDS011;46079;48.686;15.598;2023-04-24T05:46:04;3.55;;;1.40;;
60211;SDS011;46079;48.686;15.598;2023-04-24T05:48:29;3.95;;;1.40;;
60211;SDS011;46079;48.686;15.598;2023-04-24T05:50:55;5.32;;;1.75;;
60211;SDS011;46079;48.686;15.598;2023-04-24T05:53:21;4.63;;;1.60;;
60211;SDS011;46079;48.686;15.598;2023-04-24T05:55:46;4.68;;;1.48;;
60211;SDS011;46079;48.686;15.598;2023-04-24T05:58:12;4.60;;;1.52;;
60211;SDS011;46079;48.686;15.598;2023-04-24T06:00:37;5.15;;;1.50;;
60211;SDS011;46079;48.686;15.598;2023-04-24T06:03:06;4.55;;;1.60;;
60211;SDS011;46079;48.686;15.598;2023-04-24T06:05:32;5.22;;;1.65;;
60211;SDS011;46079;48.686;15.598;2023-04-24T06:07:57;4.63;;;1.38;;
60211;SDS011;46079;48.686;15.598;2023-04-24T06:10:23;4.15;;;1.50;;
60211;SDS011;46079;48.686;15.598;2023-04-24T06:12:48;4.35;;;1.48;;
60211;SDS011;46079;48.686;15.598;2023-04-24T06:15:14;4.53;;;1.50;;
60211;SDS011;46079;48.686;15.598;2023-04-24T06:17:39;4.38;;;1.50;;
60211;SDS011;46079;48.686;15.598;2023-04-24T06:20:05;4.18;;;1.40;;
60211;SDS011;46079;48.686;15.598;2023-04-24T06:22:32;3.97;;;1.50;;
60211;SDS011;46079;48.686;15.598;2023-04-24T06:24:57;4.65;;;1.52;;
60211;SDS011;46079;48.686;15.598;2023-04-24T06:27:22;4.68;;;1.55;;
60211;SDS011;46079;48.686;15.598;2023-04-24T06:29:48;4.45;;;1.52;;
60211;SDS011;46079;48.686;15.598;2023-04-24T06:32:19;4.25;;;1.35;;
60211;SDS011;46079;48.686;15.598;2023-04-24T06:34:48;3.35;;;1.33;;
60211;SDS011;46079;48.686;15.598;2023-04-24T06:37:13;4.25;;;1.50;;
60211;SDS011;46079;48.686;15.598;2023-04-24T06:39:40;4.38;;;1.55;;
60211;SDS011;46079;48.686;15.598;2023-04-24T06:42:06;5.10;;;1.65;;
60211;SDS011;46079;48.686;15.598;2023-04-24T06:44:31;4.78;;;1.63;;
60211;SDS011;46079;48.686;15.598;2023-04-24T06:46:56;4.38;;;1.60;;
60211;SDS011;46079;48.686;15.598;2023-04-24T06:49:22;4.55;;;1.45;;
60211;SDS011;46079;48.686;15.598;2023-04-24T06:51:47;5.20;;;1.60;;
60211;SDS011;46079;48.686;15.598;2023-04-24T06:54:13;4.60;;;1.50;;
60211;SDS011;46079;48.686;15.598;2023-04-24T06:56:38;4.45;;;1.50;;
60211;SDS011;46079;48.686;15.598;2023-04-24T06:59:03;3.83;;;1.40;;
60211;SDS011;46079;48.686;15.598;2023-04-24T07:01:29;4.45;;;1.40;;
60211;SDS011;46079;48.686;15.598;2023-04-24T07:03:54;4.10;;;1.42;;
60211;SDS011;46079;48.686;15.598;2023-04-24T07:06:20;4.53;;;1.65;;
60211;SDS011;46079;48.686;15.598;2023-04-24T07:08:47;4.72;;;1.60;;
60211;SDS011;46079;48.686;15.598;2023-04-24T07:11:13;3.92;;;1.45;;
60211;SDS011;46079;48.686;15.598;2023-04-24T07:13:38;4.75;;;1.50;;
60211;SDS011;46079;48.686;15.598;2023-04-24T07:16:07;3.92;;;1.50;;
60211;SDS011;46079;48.686;15.598;2023-04-24T07:18:33;4.10;;;1.40;;
60211;SDS011;46079;48.686;15.598;2023-04-24T07:21:01;4.05;;;1.30;;
60211;SDS011;46079;48.686;15.598;2023-04-24T07:23:27;3.90;;;1.50;;
60211;SDS011;46079;48.686;15.598;2023-04-24T07:25:52;4.57;;;1.50;;
60211;SDS011;46079;48.686;15.598;2023-04-24T07:28:17;3.95;;;1.48;;
60211;SDS011;46079;48.686;15.598;2023-04-24T07:30:43;4.45;;;1.52;;
60211;SDS011;46079;48.686;15.598;2023-04-24T07:33:08;4.80;;;1.60;;
60211;SDS011;46079;48.686;15.598;2023-04-24T07:35:36;4.45;;;1.40;;
60211;SDS011;46079;48.686;15.598;2023-04-24T07:38:01;4.72;;;1.60;;
60211;SDS011;46079;48.686;15.598;2023-04-24T07:40:27;3.30;;;1.30;;
60211;SDS011;46079;48.686;15.598;2023-04-24T07:42:52;4.32;;;1.50;;
60211;SDS011;46079;48.686;15.598;2023-04-24T07:45:18;4.18;;;1.40;;
60211;SDS011;46079;48.686;15.598;2023-04-24T07:47:43;3.85;;;1.40;;
60211;SDS011;46079;48.686;15.598;2023-04-24T07:50:10;5.07;;;1.45;;
60211;SDS011;46079;48.686;15.598;2023-04-24T07:52:36;3.70;;;1.27;;
60211;SDS011;46079;48.686;15.598;2023-04-24T07:55:02;4.30;;;1.40;;
60211;SDS011;46079;48.686;15.598;2023-04-24T07:57:27;2.83;;;1.20;;
60211;SDS011;46079;48.686;15.598;2023-04-24T07:59:53;4.43;;;1.55;;
60211;SDS011;46079;48.686;15.598;2023-04-24T08:02:19;3.90;;;1.40;;
60211;SDS011;46079;48.686;15.598;2023-04-24T08:04:44;3.88;;;1.35;;
60211;SDS011;46079;48.686;15.598;2023-04-24T08:07:10;4.55;;;1.38;;
60211;SDS011;46079;48.686;15.598;2023-04-24T08:09:37;3.83;;;1.30;;
60211;SDS011;46079;48.686;15.598;2023-04-24T08:12:03;3.95;;;1.60;;
60211;SDS011;46079;48.686;15.598;2023-04-24T08:14:28;4.13;;;1.40;;
60211;SDS011;46079;48.686;15.598;2023-04-24T08:16:54;3.75;;;1.30;;
60211;SDS011;46079;48.686;15.598;2023-04-24T08:19:21;3.88;;;1.40;;
60211;SDS011;46079;48.686;15.598;2023-04-24T08:21:46;3.90;;;1.48;;
60211;SDS011;46079;48.686;15.598;2023-04-24T08:24:11;4.75;;;1.50;;
60211;SDS011;46079;48.686;15.598;2023-04-24T08:26:37;4.22;;;1.40;;
60211;SDS011;46079;48.686;15.598;2023-04-24T08:29:02;3.33;;;1.30;;
60211;SDS011;46079;48.686;15.598;2023-04-24T08:31:28;3.13;;;1.20;;
60211;SDS011;46079;48.686;15.598;2023-04-24T08:33:53;3.70;;;1.30;;
60211;SDS011;46079;48.686;15.598;2023-04-24T08:36:19;3.65;;;1.30;;
60211;SDS011;46079;48.686;15.598;2023-04-24T08:38:44;4.57;;;1.48;;
60211;SDS011;46079;48.686;15.598;2023-04-24T08:41:11;4.07;;;1.40;;
60211;SDS011;46079;48.686;15.598;2023-04-24T08:43:39;4.10;;;1.40;;
60211;SDS011;46079;48.686;15.598;2023-04-24T08:46:05;3.47;;;1.30;;
60211;SDS011;46079;48.686;15.598;2023-04-24T08:48:31;5.13;;;1.50;;
60211;SDS011;46079;48.686;15.598;2023-04-24T08:50:57;3.03;;;1.23;;
60211;SDS011;46079;48.686;15.598;2023-04-24T08:53:24;3.67;;;1.30;;
60211;SDS011;46079;48.686;15.598;2023-04-24T08:55:50;4.00;;;1.30;;
60211;SDS011;46079;48.686;15.598;2023-04-24T08:58:19;3.65;;;1.33;;
60211;SDS011;46079;48.686;15.598;2023-04-24T09:00:44;3.65;;;1.40;;
60211;SDS011;46079;48.686;15.598;2023-04-24T09:03:13;3.78;;;1.20;;
60211;SDS011;46079;48.686;15.598;2023-04-24T09:05:41;4.10;;;1.40;;
60211;SDS011;46079;48.686;15.598;2023-04-24T09:08:10;2.72;;;1.20;;
60211;SDS011;46079;48.686;15.598;2023-04-24T09:10:38;3.90;;;1.45;;
60211;SDS011;46079;48.686;15.598;2023-04-24T09:13:04;3.60;;;1.15;;
60211;SDS011;46079;48.686;15.598;2023-04-24T09:15:31;3.25;;;1.27;;
60211;SDS011;46079;48.686;15.598;2023-04-24T09:17:57;3.50;;;1.30;;
60211;SDS011;46079;48.686;15.598;2023-04-24T09:20:22;3.60;;;1.20;;
60211;SDS011;46079;48.686;15.598;2023-04-24T09:22:48;3.85;;;1.42;;
60211;SDS011;46079;48.686;15.598;2023-04-24T09:25:18;3.65;;;1.35;;
60211;SDS011;46079;48.686;15.598;2023-04-24T09:27:44;4.40;;;1.35;;
60211;SDS011;46079;48.686;15.598;2023-04-24T09:30:10;3.22;;;1.30;;
60211;SDS011;46079;48.686;15.598;2023-04-24T09:32:36;3.50;;;1.30;;
60211;SDS011;46079;48.686;15.598;2023-04-24T09:35:05;3.33;;;1.30;;
60211;SDS011;46079;48.686;15.598;2023-04-24T09:37:40;3.60;;;1.25;;
60211;SDS011;46079;48.686;15.598;2023-04-24T09:40:07;4.18;;;1.25;;
60211;SDS011;46079;48.686;15.598;2023-04-24T09:42:54;4.28;;;1.42;;
60211;SDS011;46079;48.686;15.598;2023-04-24T09:45:21;3.22;;;1.20;;
60211;SDS011;46079;48.686;15.598;2023-04-24T09:47:51;3.58;;;1.33;;
60211;SDS011;46079;48.686;15.598;2023-04-24T09:50:20;3.42;;;1.17;;
60211;SDS011;46079;48.686;15.598;2023-04-24T09:52:55;3.67;;;1.30;;
60211;SDS011;46079;48.686;15.598;2023-04-24T09:55:22;2.90;;;1.13;;
60211;SDS011;46079;48.686;15.598;2023-04-24T09:57:57;3.45;;;1.30;;
60211;SDS011;46079;48.686;15.598;2023-04-24T10:00:25;3.65;;;1.30;;
60211;SDS011;46079;48.686;15.598;2023-04-24T10:02:56;2.90;;;1.25;;
60211;SDS011;46079;48.686;15.598;2023-04-24T10:05:27;4.18;;;1.30;;
60211;SDS011;46079;48.686;15.598;2023-04-24T10:07:57;3.45;;;1.27;;
60211;SDS011;46079;48.686;15.598;2023-04-24T10:10:46;2.72;;;1.17;;
60211;SDS011;46079;48.686;15.598;2023-04-24T10:13:12;3.63;;;1.23;;
60211;SDS011;46079;48.686;15.598;2023-04-24T10:15:40;2.28;;;1.10;;
60211;SDS011;46079;48.686;15.598;2023-04-24T10:18:07;3.78;;;1.33;;
60211;SDS011;46079;48.686;15.598;2023-04-24T10:20:34;3.28;;;1.25;;
60211;SDS011;46079;48.686;15.598;2023-04-24T10:23:02;2.75;;;1.10;;
60211;SDS011;46079;48.686;15.598;2023-04-24T10:25:29;3.15;;;1.23;;
60211;SDS011;46079;48.686;15.598;2023-04-24T10:27:56;2.88;;;1.10;;
60211;SDS011;46079;48.686;15.598;2023-04-24T10:30:25;4.30;;;1.30;;
60211;SDS011;46079;48.686;15.598;2023-04-24T10:32:52;4.13;;;1.30;;
60211;SDS011;46079;48.686;15.598;2023-04-24T10:35:17;3.55;;;1.30;;
60211;SDS011;46079;48.686;15.598;2023-04-24T10:38:03;2.30;;;0.98;;
60211;SDS011;46079;48.686;15.598;2023-04-24T10:40:33;2.53;;;1.08;;
60211;SDS011;46079;48.686;15.598;2023-04-24T10:43:06;2.92;;;1.13;;
60211;SDS011;46079;48.686;15.598;2023-04-24T10:45:34;3.47;;;1.30;;
60211;SDS011;46079;48.686;15.598;2023-04-24T10:48:04;2.63;;;1.00;;
60211;SDS011;46079;48.686;15.598;2023-04-24T10:50:44;3.50;;;1.17;;
60211;SDS011;46079;48.686;15.598;2023-04-24T10:53:17;4.03;;;1.30;;
60211;SDS011;46079;48.686;15.598;2023-04-24T10:58:16;3.42;;;1.30;;
60211;SDS011;46079;48.686;15.598;2023-04-24T11:00:55;3.20;;;1.30;;
60211;SDS011;46079;48.686;15.598;2023-04-24T11:05:51;2.80;;;1.10;;
60211;SDS011;46079;48.686;15.598;2023-04-24T11:10:56;4.07;;;1.30;;
60211;SDS011;46079;48.686;15.598;2023-04-24T11:14:00;3.28;;;1.15;;
60211;SDS011;46079;48.686;15.598;2023-04-24T11:21:28;3.13;;;1.20;;
60211;SDS011;46079;48.686;15.598;2023-04-24T11:23:57;3.03;;;1.13;;
60211;SDS011;46079;48.686;15.598;2023-04-24T11:26:22;2.35;;;0.98;;
60211;SDS011;46079;48.686;15.598;2023-04-24T11:28:55;3.40;;;1.10;;
60211;SDS011;46079;48.686;15.598;2023-04-24T11:31:40;2.67;;;1.08;;
60211;SDS011;46079;48.686;15.598;2023-04-24T11:34:10;2.35;;;0.95;;
60211;SDS011;46079;48.686;15.598;2023-04-24T11:36:38;2.35;;;0.93;;
60211;SDS011;46079;48.686;15.598;2023-04-24T11:39:04;3.17;;;1.10;;
60211;SDS011;46079;48.686;15.598;2023-04-24T11:41:30;3.45;;;1.10;;
60211;SDS011;46079;48.686;15.598;2023-04-24T11:43:55;3.22;;;1.20;;
60211;SDS011;46079;48.686;15.598;2023-04-24T11:46:21;3.25;;;1.15;;
60211;SDS011;46079;48.686;15.598;2023-04-24T11:48:47;3.08;;;1.10;;
60211;SDS011;46079;48.686;15.598;2023-04-24T11:51:13;2.85;;;1.00;;
60211;SDS011;46079;48.686;15.598;2023-04-24T11:53:39;2.50;;;1.00;;
60211;SDS011;46079;48.686;15.598;2023-04-24T11:56:05;2.08;;;0.93;;
60211;SDS011;46079;48.686;15.598;2023-04-24T11:58:40;3.10;;;1.00;;
60211;SDS011;46079;48.686;15.598;2023-04-24T12:01:05;2.72;;;1.10;;
60211;SDS011;46079;48.686;15.598;2023-04-24T12:03:31;2.65;;;1.10;;
60211;SDS011;46079;48.686;15.598;2023-04-24T12:06:04;2.65;;;1.00;;
60211;SDS011;46079;48.686;15.598;2023-04-24T12:08:32;3.60;;;1.17;;
60211;SDS011;46079;48.686;15.598;2023-04-24T12:10:59;3.67;;;1.10;;
60211;SDS011;46079;48.686;15.598;2023-04-24T12:13:25;2.13;;;0.95;;
60211;SDS011;46079;48.686;15.598;2023-04-24T12:15:51;3.15;;;1.00;;
60211;SDS011;46079;48.686;15.598;2023-04-24T12:18:16;3.10;;;1.10;;
60211;SDS011;46079;48.686;15.598;2023-04-24T12:20:42;2.55;;;1.00;;
60211;SDS011;46079;48.686;15.598;2023-04-24T12:23:07;3.50;;;1.00;;
60211;SDS011;46079;48.686;15.598;2023-04-24T12:25:33;3.58;;;1.13;;
60211;SDS011;46079;48.686;15.598;2023-04-24T12:30:28;4.72;;;1.00;;
60211;SDS011;46079;48.686;15.598;2023-04-24T12:32:56;4.68;;;1.02;;
60211;SDS011;46079;48.686;15.598;2023-04-24T12:35:24;2.35;;;0.90;;
60211;SDS011;46079;48.686;15.598;2023-04-24T12:37:51;3.05;;;1.00;;
60211;SDS011;46079;48.686;15.598;2023-04-24T12:40:17;2.25;;;0.90;;
60211;SDS011;46079;48.686;15.598;2023-04-24T12:42:47;2.25;;;0.85;;
60211;SDS011;46079;48.686;15.598;2023-04-24T12:45:15;3.53;;;1.10;;
60211;SDS011;46079;48.686;15.598;2023-04-24T12:47:42;6.00;;;1.00;;
60211;SDS011;46079;48.686;15.598;2023-04-24T12:50:09;3.25;;;1.00;;
60211;SDS011;46079;48.686;15.598;2023-04-24T12:52:36;3.90;;;1.10;;
60211;SDS011;46079;48.686;15.598;2023-04-24T12:55:02;3.00;;;1.00;;
60211;SDS011;46079;48.686;15.598;2023-04-24T12:57:28;1.73;;;0.88;;
60211;SDS011;46079;48.686;15.598;2023-04-24T12:59:55;3.65;;;1.00;;
60211;SDS011;46079;48.686;15.598;2023-04-24T13:02:23;4.05;;;0.95;;
60211;SDS011;46079;48.686;15.598;2023-04-24T13:04:49;3.20;;;1.00;;
60211;SDS011;46079;48.686;15.598;2023-04-24T13:07:15;3.58;;;1.00;;
60211;SDS011;46079;48.686;15.598;2023-04-24T13:09:44;2.15;;;0.88;;
60211;SDS011;46079;48.686;15.598;2023-04-24T13:12:10;3.70;;;0.90;;
60211;SDS011;46079;48.686;15.598;2023-04-24T13:14:36;7.40;;;1.15;;
60211;SDS011;46079;48.686;15.598;2023-04-24T13:17:02;2.25;;;0.80;;
60211;SDS011;46079;48.686;15.598;2023-04-24T13:19:28;5.30;;;1.15;;
60211;SDS011;46079;48.686;15.598;2023-04-24T13:21:54;7.15;;;1.20;;
60211;SDS011;46079;48.686;15.598;2023-04-24T13:24:22;15.15;;;1.50;;
60211;SDS011;46079;48.686;15.598;2023-04-24T13:26:51;8.32;;;1.40;;
60211;SDS011;46079;48.686;15.598;2023-04-24T13:29:17;9.57;;;1.60;;
60211;SDS011;46079;48.686;15.598;2023-04-24T13:31:42;7.80;;;1.48;;
60211;SDS011;46079;48.686;15.598;2023-04-24T13:34:08;10.38;;;1.92;;
60211;SDS011;46079;48.686;15.598;2023-04-24T13:36:34;10.20;;;1.77;;
60211;SDS011;46079;48.686;15.598;2023-04-24T13:39:00;9.43;;;1.50;;
60211;SDS011;46079;48.686;15.598;2023-04-24T13:41:25;5.68;;;1.25;;
60211;SDS011;46079;48.686;15.598;2023-04-24T13:43:51;6.68;;;1.30;;
60211;SDS011;46079;48.686;15.598;2023-04-24T13:46:16;8.45;;;1.27;;
60211;SDS011;46079;48.686;15.598;2023-04-24T13:48:42;7.70;;;1.50;;
60211;SDS011;46079;48.686;15.598;2023-04-24T13:51:07;7.82;;;1.88;;
60211;SDS011;46079;48.686;15.598;2023-04-24T13:53:33;7.03;;;1.70;;
60211;SDS011;46079;48.686;15.598;2023-04-24T13:56:01;7.25;;;1.60;;
60211;SDS011;46079;48.686;15.598;2023-04-24T13:58:27;9.43;;;1.63;;
60211;SDS011;46079;48.686;15.598;2023-04-24T14:00:52;7.32;;;1.70;;
60211;SDS011;46079;48.686;15.598;2023-04-24T14:03:18;7.88;;;1.95;;
60211;SDS011;46079;48.686;15.598;2023-04-24T14:05:43;8.30;;;1.83;;
60211;SDS011;46079;48.686;15.598;2023-04-24T14:08:08;7.45;;;1.60;;
60211;SDS011;46079;48.686;15.598;2023-04-24T14:10:34;7.13;;;1.55;;
60211;SDS011;46079;48.686;15.598;2023-04-24T14:12:59;6.03;;;1.63;;
60211;SDS011;46079;48.686;15.598;2023-04-24T14:15:25;6.63;;;1.65;;
60211;SDS011;46079;48.686;15.598;2023-04-24T14:17:50;7.93;;;2.08;;
60211;SDS011;46079;48.686;15.598;2023-04-24T14:20:15;7.43;;;1.83;;
60211;SDS011;46079;48.686;15.598;2023-04-24T14:22:41;8.98;;;2.05;;
60211;SDS011;46079;48.686;15.598;2023-04-24T14:25:07;9.27;;;2.05;;
60211;SDS011;46079;48.686;15.598;2023-04-24T14:27:32;10.82;;;2.00;;
60211;SDS011;46079;48.686;15.598;2023-04-24T14:29:59;7.68;;;2.05;;
60211;SDS011;46079;48.686;15.598;2023-04-24T14:32:25;7.82;;;1.85;;
60211;SDS011;46079;48.686;15.598;2023-04-24T14:34:51;10.10;;;1.98;;
60211;SDS011;46079;48.686;15.598;2023-04-24T14:37:16;10.00;;;2.00;;
60211;SDS011;46079;48.686;15.598;2023-04-24T14:39:42;10.20;;;2.03;;
60211;SDS011;46079;48.686;15.598;2023-04-24T14:42:07;8.80;;;2.08;;
60211;SDS011;46079;48.686;15.598;2023-04-24T14:44:32;9.48;;;1.80;;